Latest METARs, TAFs and NOTAMs for EINN


---------------------------------------------------------------------------
	(OBSERVATIONS)
EINN 150400Z 31006KT 9999 SCT030 05/02 Q1004 NOSIG=
EINN 150330Z 32007KT 9999 FEW030 SCT047 06/02 Q1004 NOSIG=
EINN 150300Z 32007KT 9999 FEW030 SCT060 05/02 Q1003 NOSIG=
EINN 150230Z 30006KT 9999 FEW030 05/03 Q1003 NOSIG=
EINN 150200Z 28004KT 260V340 9999 FEW030 05/03 Q1002 NOSIG=
EINN 150130Z 29007KT 9999 FEW030 05/03 Q1001 NOSIG=
---------------------------------------------------------------------------
	(FC)
Sorry, FC For EINN Not Found
---------------------------------------------------------------------------
	(TERMINAL AREA FORECAST)
EINN 142300Z 1500/1524 31010KT 9999 FEW020
    TEMPO 1500/1502 FEW020CB
    PROB40 TEMPO 1500/1506 33015G25KT
    TEMPO 1517/1524 VRB03KT=
---------------------------------------------------------------------------
	(NOTAMS)


EINN B1142/15 HOLDING PROCEDURE CHANGED. RATE OF DESCENT IN HOLDING
    PATTERNS AMENDED TO: A STANDARD RATE OF DESCENT OF 1000FT
    PER MIN IN HOLDING PATTERNS WILL BE USED UNLESS OTHERWISE
    INSTRUCTED BY ATC. PILOTS MUST ADVISE ATC IF UNABLE TO COMPLY
    WITH THE STANDARD RATE OF DESCENT. REF AIP EINN AD 2.22 SECTION
    9. 02 OCT 18:07 2015 UNTIL PERM. CREATED: 01 MAY 11:24 2017

---------------------------------------------------------------------------